| time (UTC) | temp F | wind direction | speed MPH | gust MPH | rain 1hr in | rain 24hr in | rain mn in | humidity % | barometer mb |
| 20260509034508 | 45 | 171 | 4.0 | 6.0 | 0.00 | 0.00 | 0.00 | 82 | 974.4 |
| 20260509034009 | 45 | 131 | 5.0 | 6.0 | 0.00 | 0.00 | 0.00 | 82 | 974.4 |
| 20260509033508 | 45 | 135 | 3.0 | 7.0 | 0.00 | 0.00 | 0.00 | 82 | 974.4 |
| 20260509032509 | 45 | 173 | 4.0 | 6.0 | 0.00 | 0.00 | 0.00 | 83 | 974.3 |
| 20260509032009 | 45 | 132 | 3.0 | 6.0 | 0.00 | 0.00 | 0.00 | 82 | 974.3 |
| 20260509031508 | 46 | 159 | 2.0 | 6.0 | 0.00 | 0.00 | 0.00 | 81 | 974.3 |
| 20260509031008 | 46 | 174 | 5.0 | 6.0 | 0.00 | 0.00 | 0.00 | 81 | 974.5 |
| 20260509030508 | 46 | 131 | 4.0 | 6.0 | 0.00 | 0.00 | 0.00 | 80 | 974.5 |
| 20260509030008 | 46 | 167 | 3.0 | 5.0 | 0.00 | 0.00 | 0.00 | 80 | 974.4 |
| 20260509025508 | 46 | 172 | 3.0 | 6.0 | 0.00 | 0.00 | 0.00 | 79 | 974.4 |
| 20260509025009 | 47 | 171 | 5.0 | 6.0 | 0.00 | 0.00 | 0.00 | 78 | 974.5 |
| 20260509024508 | 47 | 171 | 4.0 | 6.0 | 0.00 | 0.00 | 0.00 | 78 | 974.5 |
| 20260509024008 | 47 | 147 | 4.0 | 6.0 | 0.00 | 0.00 | 0.00 | 78 | 974.5 |
| 20260509023008 | 47 | 145 | 4.0 | 6.0 | 0.00 | 0.00 | 0.00 | 77 | 974.6 |
| 20260509022509 | 47 | 171 | 3.0 | 6.0 | 0.00 | 0.00 | 0.00 | 78 | 974.5 |
| 20260509022008 | 47 | 164 | 5.0 | 6.0 | 0.00 | 0.00 | 0.00 | 78 | 974.5 |
| 20260509021009 | 48 | 165 | 3.0 | 6.0 | 0.00 | 0.00 | 0.00 | 79 | 974.7 |
| 20260509020508 | 48 | 177 | 3.0 | 6.0 | 0.00 | 0.00 | 0.00 | 79 | 974.7 |
| 20260509015008 | 48 | 158 | 5.0 | 7.0 | 0.00 | 0.00 | 0.00 | 78 | 974.6 |
| 20260509014508 | 48 | 168 | 3.0 | 7.0 | 0.00 | 0.00 | 0.00 | 77 | 974.6 |
| 20260509014008 | 49 | 172 | 5.0 | 7.0 | 0.00 | 0.00 | 0.00 | 77 | 974.6 |
| 20260509013509 | 49 | 146 | 5.0 | 7.0 | 0.00 | 0.00 | 0.00 | 77 | 974.5 |
| 20260509013008 | 49 | 146 | 5.0 | 7.0 | 0.00 | 0.00 | 0.00 | 76 | 974.5 |
| 20260509012508 | 49 | 118 | 4.0 | 7.0 | 0.00 | 0.00 | 0.00 | 76 | 974.7 |
| 20260509011507 | 49 | 158 | 3.0 | 5.0 | 0.00 | 0.00 | 0.00 | 76 | 974.7 |
| 20260509011008 | 49 | 164 | 4.0 | 5.0 | 0.00 | 0.00 | 0.00 | 76 | 974.8 |
| 20260509010508 | 48 | 100 | 2.0 | 5.0 | 0.00 | 0.00 | 0.00 | 75 | 974.8 |
| 20260509010008 | 48 | 152 | 2.0 | 3.0 | 0.00 | 0.00 | 0.00 | 74 | 974.6 |
| 20260509005508 | 48 | 182 | 3.0 | 3.0 | 0.00 | 0.00 | 0.00 | 73 | 974.6 |
| 20260509005008 | 48 | 154 | 3.0 | 5.0 | 0.00 | 0.00 | 0.00 | 71 | 974.4 |
| 20260509003508 | 48 | 158 | 3.0 | 5.0 | 0.00 | 0.00 | 0.00 | 61 | 974.6 |
| 20260509003009 | 48 | 169 | 2.0 | 5.0 | 0.00 | 0.00 | 0.00 | 59 | 974.6 |
| 20260509002508 | 49 | 144 | 0.0 | 0.0 | 0.00 | 0.00 | 0.00 | 56 | 974.2 |
| 20260509002008 | 49 | 158 | 0.0 | 0.0 | 0.00 | 0.00 | 0.00 | 56 | 974.2 |
| 20260509001508 | 50 | 162 | 0.0 | 0.0 | 0.00 | 0.00 | 0.00 | 55 | 974.3 |
| 20260509001009 | 50 | 186 | 0.0 | 0.0 | 0.00 | 0.00 | 0.00 | 54 | 974.4 |
| 20260509000508 | 51 | 180 | 0.0 | 1.0 | 0.00 | 0.00 | 0.00 | 53 | 974.4 |
| 20260509000008 | 51 | 162 | 0.0 | 3.0 | 0.00 | 0.00 | 0.00 | 52 | 974.2 |
| 20260508235508 | 52 | 176 | 2.0 | 3.0 | 0.00 | 0.00 | 0.00 | 52 | 974.2 |
| 20260508235008 | 52 | 151 | 0.0 | 3.0 | 0.00 | 0.00 | 0.00 | 52 | 974.4 |
| 20260508234508 | 53 | 132 | 0.0 | 3.0 | 0.00 | 0.00 | 0.00 | 51 | 974.4 |
| 20260508234008 | 53 | 115 | 2.0 | 5.0 | 0.00 | 0.00 | 0.00 | 50 | 974.4 |
| 20260508233508 | 53 | 176 | 3.0 | 5.0 | 0.00 | 0.00 | 0.00 | 50 | 974.3 |
| 20260508232008 | 54 | 149 | 3.0 | 3.0 | 0.00 | 0.00 | 0.00 | 48 | 974.2 |
| 20260508231008 | 57 | 146 | 1.0 | 6.0 | 0.00 | 0.00 | 0.00 | 44 | 974.4 |
| 20260508230508 | 57 | 228 | 1.0 | 3.0 | 0.00 | 0.00 | 0.00 | 44 | 974.4 |
| 20260508230008 | 57 | 278 | 0.0 | 2.0 | 0.00 | 0.00 | 0.00 | 44 | 974.2 |
| 20260508225508 | 57 | 140 | 0.0 | 5.0 | 0.00 | 0.00 | 0.00 | 44 | 974.2 |
| 20260508225009 | 57 | 173 | 1.0 | 5.0 | 0.00 | 0.00 | 0.00 | 43 | 974.3 |
| 20260508224508 | 56 | 207 | 3.0 | 5.0 | 0.00 | 0.00 | 0.00 | 43 | 974.3 |
| 20260508224009 | 56 | 13 | 1.0 | 3.0 | 0.00 | 0.00 | 0.00 | 44 | 974.3 |
| 20260508223508 | 56 | 218 | 2.0 | 3.0 | 0.00 | 0.00 | 0.00 | 43 | 974.2 |
| 20260508223008 | 57 | 150 | 2.0 | 6.0 | 0.00 | 0.00 | 0.00 | 42 | 974.2 |
| 20260508222508 | 57 | 164 | 1.0 | 6.0 | 0.00 | 0.00 | 0.00 | 42 | 974.5 |
| 20260508222008 | 57 | 172 | 4.0 | 6.0 | 0.00 | 0.00 | 0.00 | 41 | 974.5 |
| 20260508221508 | 58 | 250 | 1.0 | 6.0 | 0.00 | 0.00 | 0.00 | 42 | 974.5 |
| 20260508221008 | 58 | 314 | 2.0 | 6.0 | 0.00 | 0.00 | 0.00 | 42 | 974.4 |
| 20260508220507 | 58 | 260 | 2.0 | 5.0 | 0.00 | 0.00 | 0.00 | 41 | 974.4 |
| 20260508220008 | 58 | 236 | 3.0 | 5.0 | 0.00 | 0.00 | 0.00 | 42 | 974.4 |
| 20260508214508 | 57 | 246 | 2.0 | 3.0 | 0.00 | 0.00 | 0.00 | 41 | 974.6 |
| 20260508213508 | 58 | 265 | 2.0 | 3.0 | 0.00 | 0.00 | 0.00 | 41 | 974.5 |
| 20260508213008 | 62 | 277 | 2.0 | 3.0 | 0.00 | 0.00 | 0.00 | 36 | 974.5 |
| 20260508212507 | 62 | 315 | 3.0 | 6.0 | 0.00 | 0.00 | 0.00 | 37 | 974.6 |
| 20260508211507 | 61 | 313 | 3.0 | 6.0 | 0.00 | 0.00 | 0.00 | 37 | 974.6 |
| 20260508211007 | 61 | 300 | 3.0 | 5.0 | 0.00 | 0.00 | 0.00 | 39 | 974.8 |
| 20260508210508 | 60 | 212 | 2.0 | 6.0 | 0.00 | 0.00 | 0.00 | 40 | 974.8 |
| 20260508205507 | 60 | 155 | 4.0 | 8.0 | 0.00 | 0.00 | 0.00 | 39 | 974.7 |
| 20260508205009 | 61 | 348 | 4.0 | 7.0 | 0.00 | 0.00 | 0.00 | 39 | 975.0 |
| 20260508204507 | 59 | 288 | 4.0 | 6.0 | 0.00 | 0.00 | 0.00 | 40 | 975.0 |
| 20260508203508 | 61 | 358 | 3.0 | 6.0 | 0.00 | 0.00 | 0.00 | 38 | 974.8 |
| 20260508203007 | 59 | 294 | 3.0 | 6.0 | 0.00 | 0.00 | 0.00 | 44 | 974.8 |
| 20260508202508 | 60 | 11 | 4.0 | 6.0 | 0.00 | 0.00 | 0.00 | 39 | 975.0 |
| 20260508202007 | 60 | 244 | 3.0 | 6.0 | 0.00 | 0.00 | 0.00 | 41 | 975.0 |
| 20260508200508 | 62 | 329 | 3.0 | 6.0 | 0.00 | 0.00 | 0.00 | 40 | 975.1 |
| 20260508200007 | 58 | 321 | 3.0 | 6.0 | 0.00 | 0.00 | 0.00 | 43 | 975.2 |
| 20260508195508 | 59 | 271 | 3.0 | 6.0 | 0.00 | 0.00 | 0.00 | 41 | 975.2 |
| 20260508195008 | 60 | 326 | 4.0 | 6.0 | 0.00 | 0.00 | 0.00 | 41 | 975.4 |
| 20260508194508 | 60 | 306 | 3.0 | 6.0 | 0.00 | 0.00 | 0.00 | 40 | 975.4 |
| 20260508194008 | 57 | 177 | 2.0 | 5.0 | 0.00 | 0.00 | 0.00 | 43 | 975.4 |
| 20260508193008 | 61 | 248 | 2.0 | 7.0 | 0.00 | 0.00 | 0.00 | 42 | 975.6 |
| 20260508192508 | 58 | 241 | 4.0 | 7.0 | 0.00 | 0.00 | 0.00 | 43 | 975.6 |
| 20260508192008 | 59 | 317 | 5.0 | 7.0 | 0.00 | 0.00 | 0.00 | 41 | 975.6 |
| 20260508191507 | 58 | 269 | 4.0 | 6.0 | 0.00 | 0.00 | 0.00 | 40 | 975.6 |
| 20260508191008 | 58 | 296 | 3.0 | 7.0 | 0.00 | 0.00 | 0.00 | 43 | 975.6 |
| 20260508190008 | 56 | 229 | 4.0 | 7.0 | 0.00 | 0.00 | 0.00 | 43 | 975.5 |
| 20260508185008 | 57 | 134 | 3.0 | 7.0 | 0.00 | 0.00 | 0.00 | 41 | 975.5 |
| 20260508184507 | 60 | 295 | 3.0 | 7.0 | 0.00 | 0.00 | 0.00 | 39 | 975.5 |
| 20260508184008 | 61 | 251 | 2.0 | 6.0 | 0.00 | 0.00 | 0.00 | 40 | 975.5 |
| 20260508183507 | 62 | 287 | 3.0 | 6.0 | 0.00 | 0.00 | 0.00 | 39 | 975.6 |
| 20260508183008 | 61 | 332 | 4.0 | 6.0 | 0.00 | 0.00 | 0.00 | 38 | 975.6 |
| 20260508182508 | 59 | 305 | 3.0 | 9.0 | 0.00 | 0.00 | 0.00 | 43 | 975.7 |
| 20260508181008 | 59 | 240 | 3.0 | 7.0 | 0.00 | 0.00 | 0.00 | 41 | 975.7 |
| 20260508180508 | 58 | 229 | 2.0 | 6.0 | 0.00 | 0.00 | 0.00 | 41 | 975.7 |
| 20260508180008 | 59 | 322 | 3.0 | 6.0 | 0.00 | 0.00 | 0.00 | 40 | 975.6 |
| 20260508175508 | 59 | 181 | 1.0 | 6.0 | 0.00 | 0.00 | 0.00 | 41 | 975.6 |
| 20260508174508 | 58 | 252 | 3.0 | 6.0 | 0.00 | 0.00 | 0.00 | 42 | 976.0 |
| 20260508174007 | 59 | 315 | 4.0 | 6.0 | 0.00 | 0.00 | 0.00 | 41 | 976.0 |
| 20260508173008 | 60 | 338 | 3.0 | 5.0 | 0.00 | 0.00 | 0.00 | 44 | 976.0 |
| 20260508172507 | 55 | 34 | 2.0 | 5.0 | 0.00 | 0.00 | 0.00 | 46 | 976.0 |
| 20260508171507 | 53 | 200 | 3.0 | 5.0 | 0.00 | 0.00 | 0.00 | 50 | 976.0 |
| 20260508171007 | 54 | 253 | 3.0 | 9.0 | 0.00 | 0.00 | 0.00 | 49 | 976.1 |
| 20260508170507 | 54 | 215 | 3.0 | 9.0 | 0.00 | 0.00 | 0.00 | 49 | 976.1 |
| 20260508170008 | 57 | 143 | 3.0 | 9.0 | 0.00 | 0.00 | 0.00 | 51 | 976.3 |
| 20260508165007 | 56 | 213 | 3.0 | 6.0 | 0.00 | 0.00 | 0.00 | 50 | 976.4 |
| 20260508164508 | 52 | 105 | 4.0 | 6.0 | 0.00 | 0.00 | 0.00 | 54 | 976.4 |
| 20260508164008 | 51 | 161 | 3.0 | 6.0 | 0.00 | 0.00 | 0.00 | 55 | 976.4 |
| 20260508163507 | 51 | 171 | 2.0 | 6.0 | 0.00 | 0.00 | 0.00 | 57 | 976.5 |
| 20260508163007 | 51 | 145 | 5.0 | 6.0 | 0.00 | 0.00 | 0.00 | 56 | 976.5 |
| 20260508162508 | 53 | 167 | 5.0 | 6.0 | 0.00 | 0.00 | 0.00 | 55 | 976.8 |
| 20260508162007 | 54 | 165 | 4.0 | 6.0 | 0.00 | 0.00 | 0.00 | 53 | 976.8 |
| 20260508161007 | 52 | 165 | 4.0 | 7.0 | 0.00 | 0.00 | 0.00 | 55 | 976.7 |
| 20260508160507 | 51 | 135 | 3.0 | 7.0 | 0.00 | 0.00 | 0.00 | 57 | 976.7 |
| 20260508160007 | 54 | 159 | 6.0 | 7.0 | 0.00 | 0.00 | 0.00 | 54 | 976.8 |
| 20260508154007 | 55 | 164 | 3.0 | 6.0 | 0.00 | 0.00 | 0.00 | 53 | 976.7 |
| 20260508153507 | 55 | 137 | 5.0 | 6.0 | 0.00 | 0.00 | 0.00 | 54 | 976.8 |
| 20260508153008 | 55 | 15 | 3.0 | 6.0 | 0.00 | 0.00 | 0.00 | 52 | 976.8 |
| 20260508152508 | 55 | 159 | 3.0 | 6.0 | 0.00 | 0.00 | 0.00 | 53 | 977.1 |
| 20260508152007 | 55 | 201 | 3.0 | 6.0 | 0.00 | 0.00 | 0.00 | 52 | 977.1 |
| 20260508151507 | 55 | 283 | 3.0 | 6.0 | 0.00 | 0.00 | 0.00 | 52 | 977.1 |
| 20260508151008 | 54 | 180 | 2.0 | 7.0 | 0.00 | 0.00 | 0.00 | 54 | 976.9 |
| 20260508150507 | 54 | 158 | 4.0 | 7.0 | 0.00 | 0.00 | 0.00 | 54 | 976.9 |
| 20260508150007 | 54 | 182 | 4.0 | 7.0 | 0.00 | 0.00 | 0.00 | 54 | 977.0 |
| 20260508145507 | 53 | 209 | 5.0 | 7.0 | 0.00 | 0.00 | 0.00 | 53 | 977.0 |
| 20260508145007 | 53 | 168 | 5.0 | 6.0 | 0.00 | 0.00 | 0.00 | 54 | 977.0 |
| 20260508144508 | 52 | 198 | 3.0 | 6.0 | 0.00 | 0.00 | 0.00 | 55 | 977.0 |
| 20260508144007 | 52 | 204 | 5.0 | 6.0 | 0.00 | 0.00 | 0.00 | 55 | 977.0 |
| 20260508143507 | 52 | 209 | 5.0 | 6.0 | 0.00 | 0.00 | 0.00 | 57 | 977.2 |
| 20260508143008 | 52 | 152 | 3.0 | 7.0 | 0.00 | 0.00 | 0.00 | 56 | 977.2 |
| 20260508142508 | 51 | 160 | 4.0 | 8.0 | 0.00 | 0.00 | 0.00 | 57 | 977.1 |
| 20260508141507 | 51 | 166 | 3.0 | 8.0 | 0.00 | 0.00 | 0.00 | 57 | 977.1 |
| 20260508141007 | 52 | 167 | 5.0 | 8.0 | 0.00 | 0.00 | 0.00 | 57 | 977.1 |
| 20260508140507 | 52 | 136 | 5.0 | 7.0 | 0.00 | 0.00 | 0.00 | 57 | 977.1 |
| 20260508140007 | 52 | 199 | 2.0 | 6.0 | 0.00 | 0.00 | 0.00 | 60 | 976.9 |
| 20260508135507 | 52 | 142 | 2.0 | 6.0 | 0.00 | 0.00 | 0.00 | 58 | 976.9 |
| 20260508135007 | 52 | 246 | 2.0 | 6.0 | 0.00 | 0.00 | 0.00 | 58 | 976.9 |
| 20260508134007 | 51 | 216 | 2.0 | 6.0 | 0.00 | 0.00 | 0.00 | 57 | 976.9 |
| 20260508133508 | 51 | 163 | 2.0 | 6.0 | 0.00 | 0.00 | 0.00 | 55 | 976.7 |
| 20260508133007 | 52 | 213 | 2.0 | 6.0 | 0.00 | 0.00 | 0.00 | 54 | 976.7 |
| 20260508132507 | 52 | 288 | 2.0 | 3.0 | 0.00 | 0.00 | 0.00 | 54 | 976.7 |
| 20260508131507 | 52 | 269 | 2.0 | 3.0 | 0.00 | 0.00 | 0.00 | 54 | 976.7 |
| 20260508131007 | 52 | 312 | 1.0 | 3.0 | 0.00 | 0.00 | 0.00 | 57 | 976.7 |
| 20260508130507 | 51 | 202 | 1.0 | 3.0 | 0.00 | 0.00 | 0.00 | 57 | 976.7 |
| 20260508130007 | 50 | 235 | 1.0 | 2.0 | 0.00 | 0.00 | 0.00 | 59 | 976.8 |
| 20260508125507 | 50 | 276 | 2.0 | 2.0 | 0.00 | 0.00 | 0.00 | 60 | 976.8 |
| 20260508125007 | 49 | 81 | 1.0 | 2.0 | 0.00 | 0.00 | 0.00 | 59 | 976.7 |
| 20260508124508 | 50 | 242 | 1.0 | 2.0 | 0.00 | 0.00 | 0.00 | 60 | 976.7 |
| 20260508124007 | 49 | 121 | 2.0 | 2.0 | 0.00 | 0.00 | 0.00 | 61 | 976.7 |
| 20260508123507 | 49 | 315 | 0.0 | 2.0 | 0.00 | 0.00 | 0.00 | 61 | 976.8 |
| 20260508123008 | 49 | 317 | 2.0 | 2.0 | 0.00 | 0.00 | 0.00 | 61 | 976.8 |
| 20260508122507 | 48 | 70 | 1.0 | 2.0 | 0.00 | 0.00 | 0.00 | 63 | 976.9 |
| 20260508122007 | 48 | 22 | 0.0 | 2.0 | 0.00 | 0.00 | 0.00 | 66 | 976.9 |
| 20260508121507 | 47 | 278 | 1.0 | 2.0 | 0.00 | 0.00 | 0.00 | 68 | 976.9 |
| 20260508121008 | 47 | 332 | 1.0 | 2.0 | 0.00 | 0.00 | 0.00 | 68 | 977.1 |
| 20260508120007 | 45 | 0 | 0.0 | 2.0 | 0.00 | 0.00 | 0.00 | 71 | 977.1 |
| 20260508115509 | 44 | 319 | 1.0 | 2.0 | 0.00 | 0.00 | 0.00 | 73 | 977.1 |
| 20260508115008 | 44 | 315 | 0.0 | 2.0 | 0.00 | 0.00 | 0.00 | 74 | 976.8 |
| 20260508114507 | 43 | 38 | 1.0 | 2.0 | 0.00 | 0.00 | 0.00 | 75 | 976.8 |
| 20260508114008 | 42 | 127 | 1.0 | 2.0 | 0.00 | 0.00 | 0.00 | 80 | 976.8 |
| 20260508113507 | 41 | 158 | 0.0 | 1.0 | 0.00 | 0.00 | 0.00 | 82 | 976.9 |
| 20260508113007 | 40 | 110 | 0.0 | 0.0 | 0.00 | 0.00 | 0.00 | 86 | 976.9 |
| 20260508112507 | 40 | 180 | 0.0 | 0.0 | 0.00 | 0.00 | 0.00 | 85 | 977.0 |
| 20260508112008 | 40 | 169 | 0.0 | 0.0 | 0.00 | 0.00 | 0.00 | 84 | 977.0 |
| 20260508111007 | 40 | 202 | 0.0 | 0.0 | 0.00 | 0.00 | 0.00 | 85 | 977.1 |
| 20260508110507 | 39 | 170 | 0.0 | 0.0 | 0.00 | 0.00 | 0.00 | 85 | 977.1 |
| 20260508110007 | 39 | 99 | 0.0 | 0.0 | 0.00 | 0.00 | 0.00 | 83 | 977.1 |
| 20260508105508 | 39 | 180 | 0.0 | 1.0 | 0.00 | 0.00 | 0.00 | 83 | 977.1 |
| 20260508105007 | 39 | 180 | 0.0 | 2.0 | 0.00 | 0.00 | 0.00 | 83 | 977.0 |
| 20260508104507 | 39 | 180 | 1.0 | 2.0 | 0.00 | 0.00 | 0.00 | 83 | 977.0 |
| 20260508104007 | 39 | 241 | 0.0 | 0.0 | 0.00 | 0.00 | 0.00 | 84 | 977.0 |
| 20260508103507 | 39 | 202 | 0.0 | 1.0 | 0.00 | 0.00 | 0.00 | 84 | 977.0 |
| 20260508103008 | 39 | 202 | 0.0 | 1.0 | 0.00 | 0.00 | 0.00 | 84 | 977.0 |
| 20260508102507 | 39 | 245 | 0.0 | 1.0 | 0.00 | 0.00 | 0.00 | 84 | 976.9 |
| 20260508102007 | 39 | 225 | 0.0 | 1.0 | 0.00 | 0.00 | 0.00 | 84 | 976.9 |
| 20260508101507 | 39 | 202 | 0.0 | 1.0 | 0.00 | 0.00 | 0.00 | 83 | 976.9 |
| 20260508101008 | 39 | 235 | 0.0 | 1.0 | 0.00 | 0.00 | 0.00 | 83 | 976.8 |
| 20260508100507 | 39 | 180 | 0.0 | 1.0 | 0.00 | 0.00 | 0.00 | 83 | 976.8 |
| 20260508100007 | 39 | 225 | 0.0 | 2.0 | 0.00 | 0.00 | 0.00 | 82 | 976.5 |
| 20260508095507 | 39 | 211 | 0.0 | 2.0 | 0.00 | 0.00 | 0.00 | 82 | 976.5 |
| 20260508094508 | 39 | 292 | 1.0 | 2.0 | 0.00 | 0.00 | 0.00 | 82 | 976.4 |
| 20260508094007 | 40 | 245 | 0.0 | 2.0 | 0.00 | 0.00 | 0.00 | 82 | 976.4 |
| 20260508093507 | 40 | 291 | 1.0 | 3.0 | 0.00 | 0.00 | 0.00 | 82 | 976.5 |
| 20260508093008 | 40 | 308 | 1.0 | 3.0 | 0.00 | 0.00 | 0.00 | 82 | 976.5 |
| 20260508092007 | 40 | 252 | 0.0 | 2.0 | 0.00 | 0.00 | 0.00 | 81 | 976.5 |
| 20260508091507 | 40 | 278 | 0.0 | 5.0 | 0.00 | 0.00 | 0.00 | 81 | 976.5 |
| 20260508091007 | 40 | 312 | 2.0 | 5.0 | 0.00 | 0.00 | 0.00 | 81 | 976.4 |
| 20260508090507 | 40 | 330 | 2.0 | 3.0 | 0.00 | 0.00 | 0.00 | 81 | 976.4 |
| 20260508090007 | 40 | 332 | 1.0 | 3.0 | 0.00 | 0.00 | 0.00 | 82 | 976.5 |
| 20260508085507 | 40 | 323 | 0.0 | 3.0 | 0.00 | 0.00 | 0.00 | 81 | 976.5 |
| 20260508085007 | 39 | 315 | 2.0 | 3.0 | 0.00 | 0.00 | 0.00 | 81 | 976.5 |
| 20260508084507 | 39 | 185 | 1.0 | 3.0 | 0.00 | 0.00 | 0.00 | 81 | 976.5 |
| 20260508084007 | 39 | 292 | 1.0 | 3.0 | 0.00 | 0.00 | 0.00 | 82 | 976.5 |
| 20260508083506 | 39 | 239 | 2.0 | 3.0 | 0.00 | 0.00 | 0.00 | 81 | 976.5 |
| 20260508083007 | 39 | 180 | 2.0 | 2.0 | 0.00 | 0.00 | 0.00 | 83 | 976.5 |
| 20260508082507 | 39 | 173 | 0.0 | 2.0 | 0.00 | 0.00 | 0.00 | 84 | 976.6 |
| 20260508082007 | 38 | 57 | 0.0 | 2.0 | 0.00 | 0.00 | 0.00 | 84 | 976.6 |
| 20260508081507 | 38 | 28 | 2.0 | 3.0 | 0.00 | 0.00 | 0.00 | 84 | 976.5 |
| 20260508081007 | 38 | 248 | 1.0 | 3.0 | 0.00 | 0.00 | 0.00 | 84 | 976.5 |
| 20260508080007 | 38 | 123 | 0.0 | 2.0 | 0.00 | 0.00 | 0.00 | 84 | 976.4 |
| 20260508075507 | 38 | 22 | 0.0 | 2.0 | 0.00 | 0.00 | 0.00 | 84 | 976.4 |
| 20260508075007 | 38 | 252 | 0.0 | 0.0 | 0.00 | 0.00 | 0.00 | 84 | 976.5 |
| 20260508074507 | 38 | 131 | 0.0 | 0.0 | 0.00 | 0.00 | 0.00 | 85 | 976.5 |
| 20260508074007 | 38 | 162 | 0.0 | 0.0 | 0.00 | 0.00 | 0.00 | 84 | 976.5 |
| 20260508073508 | 38 | 225 | 0.0 | 0.0 | 0.00 | 0.00 | 0.00 | 84 | 976.5 |
| 20260508073007 | 38 | 8 | 0.0 | 2.0 | 0.00 | 0.00 | 0.00 | 84 | 976.5 |
| 20260508072506 | 38 | 268 | 0.0 | 2.0 | 0.00 | 0.00 | 0.00 | 84 | 976.7 |
| 20260508072007 | 38 | 202 | 0.0 | 2.0 | 0.00 | 0.00 | 0.00 | 85 | 976.7 |
| 20260508071507 | 38 | 227 | 0.0 | 2.0 | 0.00 | 0.00 | 0.00 | 85 | 976.7 |
| 20260508071007 | 38 | 268 | 0.0 | 3.0 | 0.00 | 0.00 | 0.00 | 85 | 976.7 |
| 20260508070507 | 38 | 237 | 0.0 | 3.0 | 0.00 | 0.00 | 0.00 | 85 | 976.7 |
| 20260508070007 | 38 | 254 | 0.0 | 3.0 | 0.00 | 0.00 | 0.00 | 86 | 976.9 |
| 20260508065507 | 38 | 281 | 0.0 | 2.0 | 0.00 | 0.00 | 0.00 | 86 | 976.9 |
| 20260508064506 | 38 | 169 | 0.0 | 3.0 | 0.00 | 0.00 | 0.00 | 87 | 976.9 |
| 20260508064007 | 37 | 330 | 1.0 | 3.0 | 0.00 | 0.00 | 0.00 | 87 | 976.9 |
| 20260508063507 | 37 | 118 | 0.0 | 0.0 | 0.00 | 0.00 | 0.00 | 86 | 977.1 |
| 20260508063007 | 37 | 45 | 0.0 | 2.0 | 0.00 | 0.00 | 0.00 | 86 | 977.1 |
| 20260508062506 | 37 | 209 | 0.0 | 3.0 | 0.00 | 0.00 | 0.00 | 85 | 977.1 |
| 20260508062007 | 37 | 212 | 2.0 | 3.0 | 0.00 | 0.00 | 0.00 | 85 | 977.1 |
| 20260508061507 | 36 | 194 | 1.0 | 1.0 | 0.00 | 0.00 | 0.00 | 87 | 977.1 |
| 20260508060507 | 36 | 149 | 0.0 | 1.0 | 0.00 | 0.00 | 0.00 | 89 | 977.0 |
| 20260508060006 | 35 | 175 | 0.0 | 0.0 | 0.00 | 0.00 | 0.00 | 90 | 977.2 |
| 20260508055507 | 35 | 202 | 0.0 | 0.0 | 0.00 | 0.00 | 0.00 | 90 | 977.2 |
| 20260508055007 | 34 | 219 | 0.0 | 0.0 | 0.00 | 0.00 | 0.00 | 91 | 977.4 |
| 20260508054507 | 34 | 188 | 0.0 | 0.0 | 0.00 | 0.00 | 0.00 | 91 | 977.4 |
| 20260508053506 | 34 | 169 | 0.0 | 0.0 | 0.00 | 0.00 | 0.00 | 92 | 977.4 |
| 20260508053007 | 34 | 186 | 0.0 | 0.0 | 0.00 | 0.00 | 0.00 | 91 | 977.4 |
| 20260508052507 | 33 | 202 | 0.0 | 0.0 | 0.00 | 0.00 | 0.00 | 92 | 977.4 |
| 20260508052006 | 33 | 190 | 0.0 | 0.0 | 0.00 | 0.00 | 0.00 | 92 | 977.4 |
| 20260508050507 | 33 | 180 | 0.0 | 0.0 | 0.00 | 0.00 | 0.00 | 94 | 977.4 |
| 20260508045007 | 33 | 192 | 0.0 | 0.0 | 0.00 | 0.00 | 0.00 | 93 | 977.2 |
| 20260508044006 | 33 | 180 | 0.0 | 0.0 | 0.00 | 0.00 | 0.00 | 93 | 977.1 |
| 20260508043507 | 33 | 180 | 0.0 | 0.0 | 0.00 | 0.00 | 0.00 | 92 | 977.4 |
| 20260508043007 | 33 | 180 | 0.0 | 0.0 | 0.00 | 0.00 | 0.00 | 92 | 977.4 |
| 20260508042507 | 33 | 180 | 0.0 | 0.0 | 0.00 | 0.00 | 0.00 | 92 | 977.3 |
| 20260508042007 | 33 | 180 | 0.0 | 0.0 | 0.00 | 0.00 | 0.00 | 91 | 977.3 |
| 20260508041507 | 33 | 199 | 0.0 | 0.0 | 0.00 | 0.00 | 0.00 | 91 | 977.3 |
| 20260508040503 | 33 | 202 | 0.0 | 0.0 | 0.00 | 0.00 | 0.00 | 90 | 977.3 |